createdAt,value
2019-03-06T00:02:58.841Z,5.33
2019-03-06T00:08:01.933Z,5.63
2019-03-06T00:13:05.481Z,5.30
2019-03-06T00:18:08.890Z,5.97
2019-03-06T00:23:11.980Z,6.10
2019-03-06T00:28:15.712Z,6.47
2019-03-06T00:33:18.790Z,6.80
2019-03-06T00:38:22.538Z,7.40
2019-03-06T00:43:26.032Z,8.03
2019-03-06T00:48:29.448Z,7.33
2019-03-06T00:53:33.199Z,7.50
2019-03-06T00:58:36.619Z,7.80
2019-03-06T01:03:40.332Z,8.63
2019-03-06T01:08:43.750Z,8.83
2019-03-06T01:13:47.083Z,8.50
2019-03-06T01:18:50.891Z,9.00
2019-03-06T01:23:53.979Z,9.17
2019-03-06T01:28:57.721Z,9.53
2019-03-06T01:34:05.803Z,9.37
2019-03-06T01:39:11.222Z,9.87
2019-03-06T01:44:19.039Z,10.80
2019-03-06T01:49:22.455Z,10.57
2019-03-06T01:54:25.547Z,10.97
2019-03-06T01:59:28.971Z,11.00
2019-03-06T02:04:32.092Z,10.73
2019-03-06T02:09:35.190Z,11.00
2019-03-06T02:14:38.608Z,11.87
2019-03-06T02:19:42.105Z,10.97
2019-03-06T02:24:45.829Z,11.47
2019-03-06T02:29:49.267Z,11.67
2019-03-06T02:34:52.679Z,11.23
2019-03-06T02:39:55.851Z,11.70
2019-03-06T02:44:59.092Z,11.60
2019-03-06T02:50:02.185Z,11.80
2019-03-06T02:55:08.369Z,12.23
2019-03-06T03:00:20.067Z,11.03
2019-03-06T03:05:28.429Z,11.20
2019-03-06T03:10:31.839Z,10.63
2019-03-06T03:15:35.892Z,9.87
2019-03-06T03:20:39.569Z,9.73
2019-03-06T03:25:43.297Z,8.97
2019-03-06T03:30:46.724Z,7.87
2019-03-06T03:35:50.473Z,7.60
2019-03-06T03:40:53.979Z,7.47
2019-03-06T03:45:57.409Z,7.13
2019-03-06T03:51:00.935Z,6.77
2019-03-06T03:56:04.024Z,6.93
2019-03-06T04:01:07.789Z,8.00
2019-03-06T04:06:11.252Z,7.67
2019-03-06T04:11:14.330Z,9.03
2019-03-06T04:16:18.058Z,8.00
2019-03-06T04:21:21.738Z,9.40
2019-03-06T04:26:25.423Z,8.83
2019-03-06T04:31:29.114Z,9.87
2019-03-06T04:36:32.526Z,10.00
2019-03-06T04:41:36.254Z,9.47
2019-03-06T04:46:39.974Z,9.50
2019-03-06T04:51:43.471Z,10.13
2019-03-06T04:56:46.551Z,9.93
2019-03-06T05:01:50.223Z,9.97
2019-03-06T05:06:53.549Z,10.53
2019-03-06T05:11:56.954Z,11.37
2019-03-06T05:17:05.278Z,11.10
2019-03-06T05:22:08.598Z,12.00
2019-03-06T05:27:12.310Z,11.60
2019-03-06T05:32:33.649Z,11.77
2019-03-06T05:37:43.060Z,11.63
2019-03-06T05:42:47.029Z,11.93
2019-03-06T05:47:50.450Z,12.15
2019-03-06T05:52:54.137Z,11.63
2019-03-06T05:57:57.550Z,11.50
2019-03-06T06:03:01.338Z,11.87
2019-03-06T06:08:04.821Z,13.10
2019-03-06T06:13:08.611Z,12.70
2019-03-06T06:18:12.269Z,13.27
2019-03-06T06:23:33.589Z,11.73
2019-03-06T06:28:37.329Z,12.73
2019-03-06T06:33:40.698Z,11.73
2019-03-06T06:38:43.858Z,11.60
2019-03-06T06:43:47.279Z,11.33
2019-03-06T06:48:50.624Z,10.70
2019-03-06T06:53:55.583Z,10.53
2019-03-06T06:59:00.254Z,9.47
2019-03-06T07:04:45.977Z,9.27
2019-03-06T07:10:08.393Z,8.63
2019-03-06T07:15:19.760Z,8.90
2019-03-06T07:20:27.227Z,8.13
2019-03-06T07:25:41.098Z,7.80
2019-03-06T07:30:46.079Z,5.90
2019-03-06T07:36:10.967Z,4.27
2019-03-06T07:41:32.421Z,3.20
2019-03-06T07:46:37.699Z,2.80
2019-03-06T07:51:51.686Z,2.60
2019-03-06T07:56:56.999Z,2.60
2019-03-06T08:02:09.067Z,2.40
2019-03-06T08:07:15.747Z,2.60
2019-03-06T08:12:39.701Z,2.60
2019-03-06T08:17:44.415Z,2.40
2019-03-06T08:22:52.445Z,2.50
2019-03-06T08:27:55.906Z,2.33
2019-03-06T08:32:58.981Z,2.00
2019-03-06T08:38:02.317Z,2.03
2019-03-06T08:43:05.762Z,2.10
2019-03-06T08:48:10.827Z,2.37
2019-03-06T08:53:21.623Z,2.27
2019-03-06T08:58:32.406Z,2.50
2019-03-06T09:03:49.402Z,2.60
2019-03-06T09:09:03.759Z,2.63
2019-03-06T09:14:14.322Z,2.17
2019-03-06T09:19:28.244Z,2.30
2019-03-06T09:24:33.269Z,2.50
2019-03-06T09:29:44.759Z,2.40
2019-03-06T09:34:50.123Z,2.37
2019-03-06T09:40:06.134Z,2.33
2019-03-06T09:45:10.672Z,2.50
2019-03-06T09:50:32.414Z,2.37
2019-03-06T09:55:53.491Z,2.93
2019-03-06T10:01:10.181Z,2.40
2019-03-06T10:06:17.649Z,2.30
2019-03-06T10:11:22.936Z,2.27
2019-03-06T10:16:28.001Z,2.43
2019-03-06T10:21:31.322Z,2.20
2019-03-06T10:26:34.742Z,2.40
2019-03-06T10:31:38.694Z,2.47
2019-03-06T10:36:42.308Z,2.33
2019-03-06T10:41:45.813Z,2.30
2019-03-06T10:46:49.847Z,2.40
2019-03-06T10:51:52.988Z,2.03
2019-03-06T10:56:56.380Z,2.40
2019-03-06T11:01:59.515Z,2.10
2019-03-06T11:07:02.976Z,2.17
2019-03-06T11:12:07.241Z,2.23
2019-03-06T11:17:11.078Z,2.47
2019-03-06T11:22:14.884Z,2.30
2019-03-06T11:27:18.579Z,2.23
2019-03-06T11:32:22.059Z,2.50
2019-03-06T11:37:25.806Z,2.07
2019-03-06T11:42:29.071Z,2.43
2019-03-06T11:47:32.490Z,2.30
2019-03-06T11:52:36.365Z,2.00
2019-03-06T11:57:40.342Z,2.10
2019-03-06T12:02:43.500Z,2.43
2019-03-06T12:07:47.217Z,2.23
2019-03-06T12:12:51.044Z,2.00
2019-03-06T12:17:54.771Z,2.40
2019-03-06T12:22:58.253Z,1.80
2019-03-06T12:28:01.666Z,1.70
2019-03-06T12:33:05.434Z,2.00
2019-03-06T12:38:10.804Z,2.10
2019-03-06T12:43:14.093Z,1.77
2019-03-06T12:48:18.157Z,2.00
2019-03-06T12:53:21.703Z,1.90
2019-03-06T12:58:25.354Z,2.10
2019-03-06T13:03:28.765Z,2.00
2019-03-06T13:08:32.179Z,2.00
2019-03-06T13:13:36.119Z,2.20
2019-03-06T13:18:39.543Z,1.77
2019-03-06T13:23:42.957Z,2.30
2019-03-06T13:28:46.374Z,1.80
2019-03-06T13:33:57.522Z,2.17
2019-03-06T13:39:06.396Z,2.10
2019-03-06T13:44:06.355Z,1.98
2019-03-06T13:49:10.180Z,2.00
2019-03-06T13:54:13.900Z,2.13
2019-03-06T13:59:17.373Z,2.37
2019-03-06T14:04:20.817Z,2.13
2019-03-06T14:09:24.503Z,2.07
2019-03-06T14:14:27.707Z,2.30
2019-03-06T14:19:31.201Z,2.00
2019-03-06T14:24:34.613Z,2.10
2019-03-06T14:29:38.030Z,2.53
2019-03-06T14:34:41.827Z,2.30
2019-03-06T14:39:45.569Z,2.40
2019-03-06T14:44:49.079Z,2.00
2019-03-06T14:49:53.192Z,2.17
2019-03-06T14:54:58.648Z,2.30
2019-03-06T15:00:02.380Z,2.10
2019-03-06T15:05:05.702Z,1.97
2019-03-06T15:10:16.494Z,2.40
2019-03-06T15:15:22.934Z,2.80
2019-03-06T15:20:27.795Z,2.13
2019-03-06T15:25:31.542Z,2.40
2019-03-06T15:30:35.264Z,2.37
2019-03-06T15:35:39.922Z,2.73
2019-03-06T15:40:43.435Z,2.40
2019-03-06T15:45:47.031Z,2.40
2019-03-06T15:50:50.777Z,2.27
2019-03-06T15:55:53.926Z,2.43
2019-03-06T16:00:57.789Z,2.40
2019-03-06T16:06:01.343Z,2.40
2019-03-06T16:11:06.467Z,2.50
2019-03-06T16:16:10.318Z,2.70
2019-03-06T16:21:13.768Z,2.20
2019-03-06T16:26:17.533Z,2.60
2019-03-06T16:31:20.719Z,2.93
2019-03-06T16:36:24.175Z,2.40
2019-03-06T16:41:27.727Z,2.67
2019-03-06T16:46:31.161Z,2.33
2019-03-06T16:51:34.656Z,2.40
2019-03-06T16:56:38.134Z,2.30
2019-03-06T17:01:41.638Z,2.47
2019-03-06T17:06:44.815Z,2.47
2019-03-06T17:11:47.973Z,2.40
2019-03-06T17:16:51.707Z,2.40
2019-03-06T17:21:55.220Z,2.80
2019-03-06T17:26:58.414Z,2.70
2019-03-06T17:32:02.243Z,2.40
2019-03-06T17:37:05.823Z,2.80
2019-03-06T17:42:09.578Z,2.73
2019-03-06T17:47:13.003Z,2.57
2019-03-06T17:52:16.520Z,2.33
2019-03-06T17:57:19.691Z,3.17
2019-03-06T18:02:23.542Z,2.63
2019-03-06T18:07:27.368Z,2.77
2019-03-06T18:12:31.185Z,2.90
2019-03-06T18:17:34.346Z,2.83
2019-03-06T18:22:38.129Z,2.53
2019-03-06T18:27:41.378Z,2.97
2019-03-06T18:32:45.158Z,2.70
2019-03-06T18:37:48.654Z,2.80
2019-03-06T18:42:52.234Z,2.60
2019-03-06T18:47:55.930Z,2.23
2019-03-06T18:52:59.436Z,2.50
2019-03-06T18:58:02.853Z,3.13
2019-03-06T19:03:06.387Z,2.60
2019-03-06T19:08:10.304Z,2.97
2019-03-06T19:13:13.466Z,2.80
2019-03-06T19:18:17.222Z,2.90
2019-03-06T19:23:21.046Z,2.93
2019-03-06T19:28:24.478Z,2.80
2019-03-06T19:33:27.899Z,2.73
2019-03-06T19:38:31.073Z,2.60
2019-03-06T19:43:34.939Z,2.67
2019-03-06T19:48:38.427Z,3.47
2019-03-06T19:53:42.256Z,3.00
2019-03-06T19:58:45.418Z,2.73
2019-03-06T20:03:48.661Z,2.87
2019-03-06T20:08:52.220Z,3.13
2019-03-06T20:13:55.709Z,3.17
2019-03-06T20:18:58.886Z,2.80
2019-03-06T20:24:02.648Z,2.73
2019-03-06T20:29:06.194Z,2.97
2019-03-06T20:34:09.360Z,3.40
2019-03-06T20:39:12.830Z,3.70
2019-03-06T20:44:17.765Z,2.90
2019-03-06T20:49:21.542Z,3.27
2019-03-06T20:54:25.004Z,3.07
2019-03-06T20:59:28.286Z,3.00
2019-03-06T21:04:31.723Z,3.00
2019-03-06T21:09:34.961Z,2.77
2019-03-06T21:14:38.149Z,2.90
2019-03-06T21:19:41.646Z,2.97
2019-03-06T21:24:45.173Z,2.97
2019-03-06T21:29:49.017Z,2.97
2019-03-06T21:34:52.913Z,3.10
2019-03-06T21:39:56.739Z,2.58
2019-03-06T21:45:00.567Z,3.00
2019-03-06T21:50:05.648Z,2.80
2019-03-06T21:55:11.966Z,3.13
2019-03-06T22:00:19.714Z,3.62
2019-03-06T22:05:22.991Z,2.77
2019-03-06T22:10:26.417Z,3.27
2019-03-06T22:15:29.959Z,3.00
2019-03-06T22:20:33.783Z,2.90
2019-03-06T22:25:37.558Z,3.30
2019-03-06T22:30:41.103Z,3.00
2019-03-06T22:35:44.233Z,3.17
2019-03-06T22:40:47.954Z,3.00
2019-03-06T22:45:52.207Z,2.90
2019-03-06T22:50:55.955Z,2.73
2019-03-06T22:55:59.631Z,3.30
2019-03-06T23:01:06.123Z,3.10
2019-03-06T23:06:09.538Z,2.97
2019-03-06T23:11:12.609Z,3.00
2019-03-06T23:16:16.362Z,3.03
2019-03-06T23:21:19.702Z,3.13
2019-03-06T23:26:23.109Z,2.93
2019-03-06T23:31:26.525Z,3.23
2019-03-06T23:36:30.637Z,3.57
2019-03-06T23:41:34.049Z,3.43
2019-03-06T23:46:37.455Z,3.03
2019-03-06T23:51:42.826Z,3.80
2019-03-06T23:56:46.502Z,3.50
